Nore, Minnesota
Current Conditions -  °F | °C
As of 10:13 AM on Monday 22 Dec 2014 (Local Time) from KFOZ Reporting Station
Haze Haze  
Wind Chill: 32°   Ceiling: 400
Heat Index: 36°   Visibility: 5mi
Dew Point: 34°   Wind: 5mph
Humidity: 93%   Direction: 130°SE
Pressure: 29.65"   Gusts: NA
Location:  47.8312°N, 94.1459°W
Report Text: KFOZ 221613Z AUTO 13004KT 5SM BR OVC004 02/01 A2965 RMK AO2
Loading
Personal Weather Stations






























Interactive Weather Map New forecast layout! Learn more

10-Day Weather Forecast

Advertisements
Track Severe Weather on mobile